IXS weather

Silchar Airport
Silchar, Assam, India

Public forecast

Using degrees Celsius for public forecast. Weather courtesy of forecast.io.

Closest aviation weather report (METAR) to Silchar Airport

Report is more than 2 hours old.

Closest report is Imphal Airport, 50.9 nm (94.2 km) E. Retrieved 2020/04/09 07:00 UTC (3 hours ago):

VEIM 090700Z 21003KT 4000 HZ FEW018 28/08 Q1014 NOSIG

Aviation forecast (TAF) for Silchar Airport

Forecast is more than 12 hours old.

Retrieved 2020/04/08 12:30 UTC (22 hours ago):

TAF VEKU 080930Z 0812/0824 25007KT 6000 SCT025 SCT100 BKN200 TEMPO 0815/0819 3000 TSRA SCT020 FEW030TCU/CB BKN090